sensor_id;sensor_type;location;lat;lon;timestamp;P1;durP1;ratioP1;P2;durP2;ratioP2
7795;SDS011;3942;51.518;6.912;2023-05-10T00:01:03;20.08;;;11.82;;
7795;SDS011;3942;51.518;6.912;2023-05-10T00:06:05;17.45;;;11.10;;
7795;SDS011;3942;51.518;6.912;2023-05-10T00:11:07;26.40;;;14.32;;
7795;SDS011;3942;51.518;6.912;2023-05-10T00:16:10;17.20;;;12.05;;
7795;SDS011;3942;51.518;6.912;2023-05-10T00:21:13;17.65;;;12.05;;
7795;SDS011;3942;51.518;6.912;2023-05-10T00:26:14;15.75;;;10.80;;
7795;SDS011;3942;51.518;6.912;2023-05-10T00:31:18;14.13;;;9.00;;
7795;SDS011;3942;51.518;6.912;2023-05-10T00:36:20;11.82;;;8.45;;
7795;SDS011;3942;51.518;6.912;2023-05-10T00:41:22;13.52;;;8.38;;
7795;SDS011;3942;51.518;6.912;2023-05-10T00:46:25;11.25;;;7.97;;
7795;SDS011;3942;51.518;6.912;2023-05-10T00:51:28;13.00;;;8.65;;
7795;SDS011;3942;51.518;6.912;2023-05-10T00:56:31;14.77;;;9.05;;
7795;SDS011;3942;51.518;6.912;2023-05-10T01:01:34;16.42;;;9.40;;
7795;SDS011;3942;51.518;6.912;2023-05-10T01:06:36;14.48;;;9.25;;
7795;SDS011;3942;51.518;6.912;2023-05-10T01:11:38;15.05;;;9.88;;
7795;SDS011;3942;51.518;6.912;2023-05-10T01:16:42;14.82;;;10.43;;
7795;SDS011;3942;51.518;6.912;2023-05-10T01:21:48;18.17;;;11.48;;
7795;SDS011;3942;51.518;6.912;2023-05-10T01:27:07;18.85;;;11.88;;
7795;SDS011;3942;51.518;6.912;2023-05-10T01:32:25;24.55;;;14.93;;
7795;SDS011;3942;51.518;6.912;2023-05-10T01:37:36;16.67;;;11.63;;
7795;SDS011;3942;51.518;6.912;2023-05-10T01:42:44;17.60;;;12.02;;
7795;SDS011;3942;51.518;6.912;2023-05-10T01:47:54;16.58;;;10.52;;
7795;SDS011;3942;51.518;6.912;2023-05-10T01:53:02;19.10;;;11.73;;
7795;SDS011;3942;51.518;6.912;2023-05-10T01:58:07;17.75;;;11.60;;
7795;SDS011;3942;51.518;6.912;2023-05-10T02:03:12;20.27;;;13.00;;
7795;SDS011;3942;51.518;6.912;2023-05-10T02:08:16;20.35;;;13.52;;
7795;SDS011;3942;51.518;6.912;2023-05-10T02:13:19;22.15;;;13.57;;
7795;SDS011;3942;51.518;6.912;2023-05-10T02:18:25;18.77;;;12.25;;
7795;SDS011;3942;51.518;6.912;2023-05-10T02:23:28;18.50;;;11.30;;
7795;SDS011;3942;51.518;6.912;2023-05-10T02:28:31;20.58;;;11.93;;
7795;SDS011;3942;51.518;6.912;2023-05-10T02:33:35;19.30;;;11.85;;
7795;SDS011;3942;51.518;6.912;2023-05-10T02:38:39;19.15;;;12.20;;
7795;SDS011;3942;51.518;6.912;2023-05-10T02:43:42;22.55;;;13.77;;
7795;SDS011;3942;51.518;6.912;2023-05-10T02:48:46;21.63;;;14.27;;
7795;SDS011;3942;51.518;6.912;2023-05-10T02:53:48;26.67;;;15.05;;
7795;SDS011;3942;51.518;6.912;2023-05-10T02:58:52;23.60;;;13.07;;
7795;SDS011;3942;51.518;6.912;2023-05-10T03:03:55;27.38;;;14.82;;
7795;SDS011;3942;51.518;6.912;2023-05-10T03:08:57;26.80;;;16.27;;
7795;SDS011;3942;51.518;6.912;2023-05-10T03:14:02;27.27;;;15.57;;
7795;SDS011;3942;51.518;6.912;2023-05-10T03:19:17;27.23;;;16.98;;
7795;SDS011;3942;51.518;6.912;2023-05-10T03:24:24;28.90;;;15.88;;
7795;SDS011;3942;51.518;6.912;2023-05-10T03:29:29;30.73;;;17.75;;
7795;SDS011;3942;51.518;6.912;2023-05-10T03:34:33;35.95;;;19.80;;
7795;SDS011;3942;51.518;6.912;2023-05-10T03:39:36;30.50;;;17.92;;
7795;SDS011;3942;51.518;6.912;2023-05-10T03:44:38;33.92;;;19.77;;
7795;SDS011;3942;51.518;6.912;2023-05-10T03:49:42;33.60;;;20.15;;
7795;SDS011;3942;51.518;6.912;2023-05-10T03:54:43;37.63;;;20.08;;
7795;SDS011;3942;51.518;6.912;2023-05-10T03:59:45;38.38;;;21.33;;
7795;SDS011;3942;51.518;6.912;2023-05-10T04:04:48;40.75;;;21.98;;
7795;SDS011;3942;51.518;6.912;2023-05-10T04:09:50;38.40;;;21.35;;
7795;SDS011;3942;51.518;6.912;2023-05-10T04:14:52;38.70;;;22.17;;
7795;SDS011;3942;51.518;6.912;2023-05-10T04:19:55;46.33;;;23.80;;
7795;SDS011;3942;51.518;6.912;2023-05-10T04:24:57;43.97;;;25.83;;
7795;SDS011;3942;51.518;6.912;2023-05-10T04:29:59;39.88;;;22.98;;
7795;SDS011;3942;51.518;6.912;2023-05-10T04:35:03;42.92;;;23.77;;
7795;SDS011;3942;51.518;6.912;2023-05-10T04:40:05;46.33;;;23.95;;
7795;SDS011;3942;51.518;6.912;2023-05-10T04:45:08;41.55;;;25.05;;
7795;SDS011;3942;51.518;6.912;2023-05-10T04:50:12;47.20;;;25.25;;
7795;SDS011;3942;51.518;6.912;2023-05-10T04:55:14;45.53;;;25.38;;
7795;SDS011;3942;51.518;6.912;2023-05-10T05:00:16;52.58;;;27.98;;
7795;SDS011;3942;51.518;6.912;2023-05-10T05:05:20;52.80;;;30.00;;
7795;SDS011;3942;51.518;6.912;2023-05-10T05:10:22;51.00;;;27.15;;
7795;SDS011;3942;51.518;6.912;2023-05-10T05:15:24;49.53;;;28.58;;
7795;SDS011;3942;51.518;6.912;2023-05-10T05:20:27;53.58;;;28.75;;
7795;SDS011;3942;51.518;6.912;2023-05-10T05:25:29;54.28;;;31.38;;
7795;SDS011;3942;51.518;6.912;2023-05-10T05:30:31;47.33;;;28.75;;
7795;SDS011;3942;51.518;6.912;2023-05-10T05:35:34;52.17;;;29.40;;
7795;SDS011;3942;51.518;6.912;2023-05-10T05:40:36;49.60;;;30.35;;
7795;SDS011;3942;51.518;6.912;2023-05-10T05:45:38;57.28;;;32.55;;
7795;SDS011;3942;51.518;6.912;2023-05-10T05:50:41;59.03;;;33.33;;
7795;SDS011;3942;51.518;6.912;2023-05-10T05:55:50;63.58;;;32.42;;
7795;SDS011;3942;51.518;6.912;2023-05-10T06:00:53;106.38;;;65.03;;
7795;SDS011;3942;51.518;6.912;2023-05-10T06:05:56;75.00;;;43.47;;
7795;SDS011;3942;51.518;6.912;2023-05-10T06:10:58;65.85;;;37.70;;
7795;SDS011;3942;51.518;6.912;2023-05-10T06:16:00;76.88;;;46.58;;
7795;SDS011;3942;51.518;6.912;2023-05-10T06:21:04;109.35;;;67.95;;
7795;SDS011;3942;51.518;6.912;2023-05-10T06:26:06;87.68;;;50.97;;
7795;SDS011;3942;51.518;6.912;2023-05-10T06:31:08;74.72;;;42.80;;
7795;SDS011;3942;51.518;6.912;2023-05-10T06:36:13;56.13;;;32.13;;
7795;SDS011;3942;51.518;6.912;2023-05-10T06:41:15;62.15;;;31.83;;
7795;SDS011;3942;51.518;6.912;2023-05-10T06:46:16;56.13;;;30.58;;
7795;SDS011;3942;51.518;6.912;2023-05-10T06:51:20;65.53;;;33.40;;
7795;SDS011;3942;51.518;6.912;2023-05-10T06:56:22;54.67;;;29.02;;
7795;SDS011;3942;51.518;6.912;2023-05-10T07:01:24;60.03;;;30.77;;
7795;SDS011;3942;51.518;6.912;2023-05-10T07:06:27;61.83;;;33.33;;
7795;SDS011;3942;51.518;6.912;2023-05-10T07:11:29;57.05;;;29.67;;
7795;SDS011;3942;51.518;6.912;2023-05-10T07:16:31;62.63;;;32.72;;
7795;SDS011;3942;51.518;6.912;2023-05-10T07:21:34;53.97;;;28.67;;
7795;SDS011;3942;51.518;6.912;2023-05-10T07:26:37;57.85;;;30.02;;
7795;SDS011;3942;51.518;6.912;2023-05-10T07:31:39;60.72;;;30.80;;
7795;SDS011;3942;51.518;6.912;2023-05-10T07:36:44;52.58;;;28.58;;
7795;SDS011;3942;51.518;6.912;2023-05-10T07:41:45;52.13;;;28.83;;
7795;SDS011;3942;51.518;6.912;2023-05-10T07:46:47;59.20;;;29.38;;
7795;SDS011;3942;51.518;6.912;2023-05-10T07:51:50;50.05;;;28.40;;
7795;SDS011;3942;51.518;6.912;2023-05-10T07:56:52;61.00;;;28.55;;
7795;SDS011;3942;51.518;6.912;2023-05-10T08:01:54;52.67;;;29.45;;
7795;SDS011;3942;51.518;6.912;2023-05-10T08:06:57;55.13;;;28.60;;
7795;SDS011;3942;51.518;6.912;2023-05-10T08:11:59;52.20;;;25.92;;
7795;SDS011;3942;51.518;6.912;2023-05-10T08:17:01;57.45;;;32.28;;
7795;SDS011;3942;51.518;6.912;2023-05-10T08:22:04;47.90;;;24.52;;
7795;SDS011;3942;51.518;6.912;2023-05-10T08:27:07;50.83;;;25.60;;
7795;SDS011;3942;51.518;6.912;2023-05-10T08:32:09;42.28;;;23.23;;
7795;SDS011;3942;51.518;6.912;2023-05-10T08:37:12;42.38;;;22.25;;
7795;SDS011;3942;51.518;6.912;2023-05-10T08:42:15;48.03;;;22.67;;
7795;SDS011;3942;51.518;6.912;2023-05-10T08:47:20;43.17;;;22.92;;
7795;SDS011;3942;51.518;6.912;2023-05-10T08:52:24;42.22;;;22.15;;
7795;SDS011;3942;51.518;6.912;2023-05-10T08:57:29;43.85;;;24.67;;
7795;SDS011;3942;51.518;6.912;2023-05-10T09:02:31;47.55;;;24.05;;
7795;SDS011;3942;51.518;6.912;2023-05-10T09:07:34;45.25;;;25.60;;
7795;SDS011;3942;51.518;6.912;2023-05-10T09:12:36;51.15;;;25.38;;
7795;SDS011;3942;51.518;6.912;2023-05-10T09:17:39;41.33;;;24.10;;
7795;SDS011;3942;51.518;6.912;2023-05-10T09:22:43;36.55;;;20.40;;
7795;SDS011;3942;51.518;6.912;2023-05-10T09:27:46;42.20;;;23.63;;
7795;SDS011;3942;51.518;6.912;2023-05-10T09:32:48;36.72;;;21.42;;
7795;SDS011;3942;51.518;6.912;2023-05-10T09:37:53;40.38;;;22.85;;
7795;SDS011;3942;51.518;6.912;2023-05-10T09:42:56;39.17;;;22.45;;
7795;SDS011;3942;51.518;6.912;2023-05-10T09:47:59;33.03;;;19.83;;
7795;SDS011;3942;51.518;6.912;2023-05-10T09:53:04;36.03;;;20.48;;
7795;SDS011;3942;51.518;6.912;2023-05-10T09:58:07;33.05;;;18.55;;
7795;SDS011;3942;51.518;6.912;2023-05-10T10:03:13;28.67;;;17.00;;
7795;SDS011;3942;51.518;6.912;2023-05-10T10:08:17;29.65;;;16.27;;
7795;SDS011;3942;51.518;6.912;2023-05-10T10:13:20;30.42;;;16.65;;
7795;SDS011;3942;51.518;6.912;2023-05-10T10:18:22;26.95;;;16.40;;
7795;SDS011;3942;51.518;6.912;2023-05-10T10:23:28;31.45;;;18.35;;
7795;SDS011;3942;51.518;6.912;2023-05-10T10:28:32;29.85;;;19.05;;
7795;SDS011;3942;51.518;6.912;2023-05-10T10:33:40;30.83;;;18.85;;
7795;SDS011;3942;51.518;6.912;2023-05-10T10:39:01;32.17;;;20.50;;
7795;SDS011;3942;51.518;6.912;2023-05-10T10:49:48;29.98;;;17.85;;
7795;SDS011;3942;51.518;6.912;2023-05-10T10:54:56;30.38;;;18.05;;
7795;SDS011;3942;51.518;6.912;2023-05-10T11:05:25;37.55;;;22.27;;
7795;SDS011;3942;51.518;6.912;2023-05-10T11:10:40;42.15;;;24.85;;
7795;SDS011;3942;51.518;6.912;2023-05-10T11:15:49;47.25;;;25.17;;
7795;SDS011;3942;51.518;6.912;2023-05-10T11:20:51;58.40;;;33.75;;
7795;SDS011;3942;51.518;6.912;2023-05-10T11:25:58;57.72;;;31.67;;
7795;SDS011;3942;51.518;6.912;2023-05-10T11:31:00;56.28;;;28.92;;
7795;SDS011;3942;51.518;6.912;2023-05-10T11:36:02;34.42;;;18.83;;
7795;SDS011;3942;51.518;6.912;2023-05-10T11:41:06;31.48;;;19.33;;
7795;SDS011;3942;51.518;6.912;2023-05-10T11:46:10;29.30;;;17.67;;
7795;SDS011;3942;51.518;6.912;2023-05-10T11:51:13;38.83;;;23.27;;
7795;SDS011;3942;51.518;6.912;2023-05-10T11:56:16;49.35;;;23.50;;
7795;SDS011;3942;51.518;6.912;2023-05-10T12:01:18;80.95;;;42.25;;
7795;SDS011;3942;51.518;6.912;2023-05-10T12:06:22;141.77;;;74.32;;
7795;SDS011;3942;51.518;6.912;2023-05-10T12:11:25;97.63;;;43.42;;
7795;SDS011;3942;51.518;6.912;2023-05-10T12:16:29;74.85;;;35.60;;
7795;SDS011;3942;51.518;6.912;2023-05-10T12:21:31;55.53;;;28.50;;
7795;SDS011;3942;51.518;6.912;2023-05-10T12:26:35;100.75;;;43.92;;
7795;SDS011;3942;51.518;6.912;2023-05-10T12:31:48;50.42;;;23.15;;
7795;SDS011;3942;51.518;6.912;2023-05-10T12:36:51;53.35;;;25.08;;
7795;SDS011;3942;51.518;6.912;2023-05-10T12:41:55;88.25;;;39.63;;
7795;SDS011;3942;51.518;6.912;2023-05-10T12:46:57;108.63;;;52.28;;
7795;SDS011;3942;51.518;6.912;2023-05-10T12:51:59;47.72;;;21.70;;
7795;SDS011;3942;51.518;6.912;2023-05-10T12:57:02;27.77;;;12.73;;
7795;SDS011;3942;51.518;6.912;2023-05-10T13:02:04;49.20;;;21.63;;
7795;SDS011;3942;51.518;6.912;2023-05-10T13:07:06;23.65;;;12.68;;
7795;SDS011;3942;51.518;6.912;2023-05-10T13:12:09;55.55;;;30.27;;
7795;SDS011;3942;51.518;6.912;2023-05-10T13:17:11;45.65;;;24.70;;
7795;SDS011;3942;51.518;6.912;2023-05-10T13:22:13;34.20;;;18.88;;
7795;SDS011;3942;51.518;6.912;2023-05-10T13:27:16;79.43;;;38.38;;
7795;SDS011;3942;51.518;6.912;2023-05-10T13:32:18;48.55;;;23.75;;
7795;SDS011;3942;51.518;6.912;2023-05-10T13:37:20;35.13;;;19.88;;
7795;SDS011;3942;51.518;6.912;2023-05-10T13:42:24;17.95;;;12.95;;
7795;SDS011;3942;51.518;6.912;2023-05-10T13:47:26;20.60;;;13.23;;
7795;SDS011;3942;51.518;6.912;2023-05-10T13:52:27;16.60;;;11.63;;
7795;SDS011;3942;51.518;6.912;2023-05-10T13:57:31;14.98;;;8.98;;
7795;SDS011;3942;51.518;6.912;2023-05-10T14:02:35;16.88;;;10.57;;
7795;SDS011;3942;51.518;6.912;2023-05-10T14:07:37;19.58;;;11.75;;
7795;SDS011;3942;51.518;6.912;2023-05-10T14:12:41;15.60;;;9.73;;
7795;SDS011;3942;51.518;6.912;2023-05-10T14:17:42;18.08;;;11.68;;
7795;SDS011;3942;51.518;6.912;2023-05-10T14:22:44;16.23;;;10.55;;
7795;SDS011;3942;51.518;6.912;2023-05-10T14:27:48;23.38;;;13.68;;
7795;SDS011;3942;51.518;6.912;2023-05-10T14:32:50;13.45;;;8.93;;
7795;SDS011;3942;51.518;6.912;2023-05-10T14:37:53;11.95;;;8.88;;
7795;SDS011;3942;51.518;6.912;2023-05-10T14:42:57;15.98;;;10.20;;
7795;SDS011;3942;51.518;6.912;2023-05-10T14:47:59;17.95;;;10.63;;
7795;SDS011;3942;51.518;6.912;2023-05-10T14:53:04;118.95;;;69.20;;
7795;SDS011;3942;51.518;6.912;2023-05-10T14:58:08;122.68;;;77.80;;
7795;SDS011;3942;51.518;6.912;2023-05-10T15:03:09;206.23;;;119.40;;
7795;SDS011;3942;51.518;6.912;2023-05-10T15:08:12;41.38;;;24.08;;
7795;SDS011;3942;51.518;6.912;2023-05-10T15:13:15;71.63;;;39.90;;
7795;SDS011;3942;51.518;6.912;2023-05-10T15:18:17;116.00;;;65.78;;
7795;SDS011;3942;51.518;6.912;2023-05-10T15:23:18;49.17;;;27.60;;
7795;SDS011;3942;51.518;6.912;2023-05-10T15:28:22;94.75;;;52.55;;
7795;SDS011;3942;51.518;6.912;2023-05-10T15:33:24;99.63;;;55.53;;
7795;SDS011;3942;51.518;6.912;2023-05-10T15:38:27;100.65;;;55.90;;
7795;SDS011;3942;51.518;6.912;2023-05-10T15:43:30;25.95;;;14.68;;
7795;SDS011;3942;51.518;6.912;2023-05-10T15:48:32;15.90;;;11.98;;
7795;SDS011;3942;51.518;6.912;2023-05-10T15:53:34;21.65;;;16.30;;
7795;SDS011;3942;51.518;6.912;2023-05-10T15:58:38;15.60;;;11.57;;
7795;SDS011;3942;51.518;6.912;2023-05-10T16:03:40;21.02;;;12.75;;
7795;SDS011;3942;51.518;6.912;2023-05-10T16:08:43;24.85;;;15.23;;
7795;SDS011;3942;51.518;6.912;2023-05-10T16:13:46;21.80;;;15.55;;
7795;SDS011;3942;51.518;6.912;2023-05-10T16:18:48;25.00;;;15.45;;
7795;SDS011;3942;51.518;6.912;2023-05-10T16:23:50;15.13;;;9.82;;
7795;SDS011;3942;51.518;6.912;2023-05-10T16:28:53;15.73;;;10.70;;
7795;SDS011;3942;51.518;6.912;2023-05-10T16:33:55;6.65;;;4.78;;
7795;SDS011;3942;51.518;6.912;2023-05-10T16:38:57;10.57;;;5.93;;
7795;SDS011;3942;51.518;6.912;2023-05-10T16:44:00;8.35;;;5.80;;
7795;SDS011;3942;51.518;6.912;2023-05-10T16:49:02;7.90;;;5.43;;
7795;SDS011;3942;51.518;6.912;2023-05-10T16:54:05;8.00;;;5.85;;
7795;SDS011;3942;51.518;6.912;2023-05-10T16:59:08;9.15;;;6.72;;
7795;SDS011;3942;51.518;6.912;2023-05-10T17:04:10;11.48;;;7.90;;
7795;SDS011;3942;51.518;6.912;2023-05-10T17:09:12;12.55;;;8.85;;
7795;SDS011;3942;51.518;6.912;2023-05-10T17:14:15;12.27;;;8.57;;
7795;SDS011;3942;51.518;6.912;2023-05-10T17:19:17;9.82;;;7.03;;
7795;SDS011;3942;51.518;6.912;2023-05-10T17:24:19;8.07;;;6.13;;
7795;SDS011;3942;51.518;6.912;2023-05-10T17:29:22;10.82;;;6.80;;
7795;SDS011;3942;51.518;6.912;2023-05-10T17:34:24;11.93;;;8.02;;
7795;SDS011;3942;51.518;6.912;2023-05-10T17:39:26;9.90;;;7.75;;
7795;SDS011;3942;51.518;6.912;2023-05-10T17:44:29;35.85;;;23.98;;
7795;SDS011;3942;51.518;6.912;2023-05-10T17:49:31;50.03;;;33.97;;
7795;SDS011;3942;51.518;6.912;2023-05-10T17:54:33;11.18;;;8.80;;
7795;SDS011;3942;51.518;6.912;2023-05-10T17:59:36;11.90;;;7.45;;
7795;SDS011;3942;51.518;6.912;2023-05-10T18:04:38;10.35;;;7.85;;
7795;SDS011;3942;51.518;6.912;2023-05-10T18:09:40;19.95;;;14.18;;
7795;SDS011;3942;51.518;6.912;2023-05-10T18:14:43;11.95;;;9.10;;
7795;SDS011;3942;51.518;6.912;2023-05-10T18:19:45;10.82;;;7.88;;
7795;SDS011;3942;51.518;6.912;2023-05-10T18:24:47;11.65;;;8.45;;
7795;SDS011;3942;51.518;6.912;2023-05-10T18:29:50;16.25;;;10.75;;
7795;SDS011;3942;51.518;6.912;2023-05-10T18:34:52;11.80;;;9.40;;
7795;SDS011;3942;51.518;6.912;2023-05-10T18:39:54;13.80;;;9.73;;
7795;SDS011;3942;51.518;6.912;2023-05-10T18:44:58;11.68;;;8.20;;
7795;SDS011;3942;51.518;6.912;2023-05-10T18:50:01;14.95;;;9.10;;
7795;SDS011;3942;51.518;6.912;2023-05-10T18:55:04;13.30;;;9.63;;
7795;SDS011;3942;51.518;6.912;2023-05-10T19:00:09;11.57;;;8.13;;
7795;SDS011;3942;51.518;6.912;2023-05-10T19:05:12;13.93;;;8.80;;
7795;SDS011;3942;51.518;6.912;2023-05-10T19:10:15;20.80;;;11.75;;
7795;SDS011;3942;51.518;6.912;2023-05-10T19:15:18;14.80;;;10.52;;
7795;SDS011;3942;51.518;6.912;2023-05-10T19:20:20;14.68;;;10.15;;
7795;SDS011;3942;51.518;6.912;2023-05-10T19:25:22;14.15;;;9.55;;
7795;SDS011;3942;51.518;6.912;2023-05-10T19:30:29;17.75;;;10.30;;
7795;SDS011;3942;51.518;6.912;2023-05-10T19:35:31;27.65;;;20.58;;
7795;SDS011;3942;51.518;6.912;2023-05-10T19:40:33;19.50;;;13.55;;
7795;SDS011;3942;51.518;6.912;2023-05-10T19:45:36;18.13;;;12.38;;
7795;SDS011;3942;51.518;6.912;2023-05-10T19:50:38;19.13;;;12.88;;
7795;SDS011;3942;51.518;6.912;2023-05-10T19:55:40;25.38;;;15.20;;
7795;SDS011;3942;51.518;6.912;2023-05-10T20:00:43;19.25;;;12.82;;
7795;SDS011;3942;51.518;6.912;2023-05-10T20:05:45;21.02;;;15.75;;
7795;SDS011;3942;51.518;6.912;2023-05-10T20:10:47;20.63;;;14.20;;
7795;SDS011;3942;51.518;6.912;2023-05-10T20:15:53;18.15;;;12.75;;
7795;SDS011;3942;51.518;6.912;2023-05-10T20:20:57;20.63;;;14.23;;
7795;SDS011;3942;51.518;6.912;2023-05-10T20:26:00;19.77;;;14.32;;
7795;SDS011;3942;51.518;6.912;2023-05-10T20:31:03;21.48;;;15.57;;
7795;SDS011;3942;51.518;6.912;2023-05-10T20:36:05;30.20;;;20.10;;
7795;SDS011;3942;51.518;6.912;2023-05-10T20:41:08;24.90;;;16.75;;
7795;SDS011;3942;51.518;6.912;2023-05-10T20:46:12;29.88;;;20.40;;
7795;SDS011;3942;51.518;6.912;2023-05-10T20:51:13;27.63;;;17.55;;
7795;SDS011;3942;51.518;6.912;2023-05-10T20:56:16;28.00;;;18.80;;
7795;SDS011;3942;51.518;6.912;2023-05-10T21:01:20;31.17;;;20.63;;
7795;SDS011;3942;51.518;6.912;2023-05-10T21:06:22;29.42;;;20.70;;
7795;SDS011;3942;51.518;6.912;2023-05-10T21:11:23;34.25;;;20.40;;
7795;SDS011;3942;51.518;6.912;2023-05-10T21:16:27;31.48;;;20.02;;
7795;SDS011;3942;51.518;6.912;2023-05-10T21:21:30;24.10;;;18.05;;
7795;SDS011;3942;51.518;6.912;2023-05-10T21:26:32;28.80;;;19.30;;
7795;SDS011;3942;51.518;6.912;2023-05-10T21:31:35;27.70;;;20.83;;
7795;SDS011;3942;51.518;6.912;2023-05-10T21:36:37;27.98;;;19.30;;
7795;SDS011;3942;51.518;6.912;2023-05-10T21:41:39;31.75;;;22.55;;
7795;SDS011;3942;51.518;6.912;2023-05-10T21:46:43;34.47;;;21.60;;
7795;SDS011;3942;51.518;6.912;2023-05-10T21:51:45;30.75;;;21.67;;
7795;SDS011;3942;51.518;6.912;2023-05-10T21:56:47;31.83;;;19.83;;
7795;SDS011;3942;51.518;6.912;2023-05-10T22:01:51;48.63;;;33.05;;
7795;SDS011;3942;51.518;6.912;2023-05-10T22:06:53;32.42;;;22.08;;
7795;SDS011;3942;51.518;6.912;2023-05-10T22:11:55;31.02;;;21.77;;
7795;SDS011;3942;51.518;6.912;2023-05-10T22:16:58;31.40;;;20.80;;
7795;SDS011;3942;51.518;6.912;2023-05-10T22:22:00;31.67;;;21.33;;
7795;SDS011;3942;51.518;6.912;2023-05-10T22:27:02;44.53;;;29.27;;
7795;SDS011;3942;51.518;6.912;2023-05-10T22:32:07;37.60;;;26.63;;
7795;SDS011;3942;51.518;6.912;2023-05-10T22:37:10;34.35;;;22.33;;
7795;SDS011;3942;51.518;6.912;2023-05-10T22:42:13;35.88;;;22.77;;
7795;SDS011;3942;51.518;6.912;2023-05-10T22:47:17;35.17;;;23.38;;
7795;SDS011;3942;51.518;6.912;2023-05-10T22:52:19;31.60;;;21.70;;
7795;SDS011;3942;51.518;6.912;2023-05-10T22:57:21;36.25;;;22.90;;
7795;SDS011;3942;51.518;6.912;2023-05-10T23:02:24;35.20;;;23.35;;
7795;SDS011;3942;51.518;6.912;2023-05-10T23:07:26;39.00;;;24.48;;
7795;SDS011;3942;51.518;6.912;2023-05-10T23:12:28;36.67;;;24.02;;
7795;SDS011;3942;51.518;6.912;2023-05-10T23:17:31;37.67;;;24.23;;
7795;SDS011;3942;51.518;6.912;2023-05-10T23:22:33;36.80;;;23.77;;
7795;SDS011;3942;51.518;6.912;2023-05-10T23:27:35;36.63;;;24.30;;
7795;SDS011;3942;51.518;6.912;2023-05-10T23:32:38;35.67;;;23.95;;
7795;SDS011;3942;51.518;6.912;2023-05-10T23:37:40;36.03;;;25.20;;
7795;SDS011;3942;51.518;6.912;2023-05-10T23:42:42;38.95;;;24.25;;
7795;SDS011;3942;51.518;6.912;2023-05-10T23:47:45;39.35;;;25.77;;
7795;SDS011;3942;51.518;6.912;2023-05-10T23:52:47;38.42;;;26.13;;
7795;SDS011;3942;51.518;6.912;2023-05-10T23:57:49;40.72;;;27.75;;
